x

Santa Monica Basin - 33nm Wsw Of Santa Monica, Ca (46025) Wave Buoy

11:50am - Fri 29th May 2015 All times are PDT. -7 hours from GMT.

  • Sig Wave height 3.0ft
  • Swell Direction
  • Peak Period 14s
  • Average Period 8s
  • Wind
    2mph, 4mph gusts
  • Sea Temp 63°f
  • Air Temp 61°f
  • Sea Pressure 1015.2mb
  • Santa Monica Basin - 33nm Wsw Of Santa Monica, Ca
  • Santa Monica Basin - 33nm Wsw Of Santa Monica, Ca

More Historic Weather Station data

Upgrade to MSW Pro to gain access to the past 30 days of data for over 8000 Wavebouys and Weather Stations around the globe.

Join Pro

Comparision Forecast

View Surf forecast
   
Fri 05/29 11:50am 3ft 14s 8s 2 4 mph 1015.2mb 63f 61f
10:50am 3.5ft 16s 8s 4 7 mph 1015mb 63f 60f
9:50am 3ft 14s 7s 7 9 mph 1014.9mb 63f 60f
8:50am 3.5ft 16s 7s 7 11 mph 1014.8mb 63f 60f
7:50am 3.5ft 14s 7s 4 9 mph 1014.7mb 63f 59f
6:50am 3.5ft 16s 7s 4 7 mph 1014.3mb 63f 59f
5:50am 3.5ft 16s 6s 4 7 mph 1014mb 63f 59f
4:50am 3.5ft 16s  -  2 4 mph 1013.7mb 63f 58f
3:50am 4ft 16s 6s 4 7 mph 1013.8mb 62f 58f
2:50am 4ft 16s 6s 2 4 mph 1014mb 62f 59f
1:50am 4ft 15s 6s 4 7 mph 1014.2mb 62f 59f
12:50am 3.5ft 16s 6s 4 9 mph 1014.4mb 62f 60f
Thu 05/28 11:50pm 3.5ft 16s 6s 2
mph
1014.5mb 62f 59f
10:50pm 3.5ft 16s 6s 4 7 mph 1014.7mb 62f 59f
9:50pm 3.5ft 16s 7s 7 9 mph 1014.4mb 62f 59f
8:50pm 3.5ft 15s 7s 7 9 mph 1013.8mb 63f 60f
7:50pm 3.5ft 16s 7s 9 11 mph 1013.6mb 63f 60f
6:50pm 3.5ft 16s 7s 9 13 mph 1013.3mb 63f 59f
5:50pm 3.5ft 16s 7s 11 13 mph 1013.7mb 64f 60f
4:50pm 3ft 16s 7s 11
mph
1014mb 64f 60f
3:50pm 3.5ft 16s 7s 2 7 mph 1014.5mb 65f 60f
2:50pm 3.5ft 17s 7s 2 4 mph 1015mb 64f 60f
1:50pm 3.5ft 16s 8s 2 4 mph 1015.7mb 64f 60f
12:50pm 3.5ft 17s 7s 4 7 mph 1016.1mb 63f 60f
11:50am 3ft 16s 7s 2 4 mph 1016.5mb 63f 60f
10:50am 3.5ft 15s 7s 2 4 mph 1016.6mb 63f 59f
9:50am 3ft 17s 7s 2 4 mph 1016.3mb 62f 58f
8:50am 3.5ft 15s 7s 2 4 mph 1016.3mb 62f 58f
7:50am 3.5ft 16s 7s  -  2 mph 1016mb 62f 58f
6:50am  -   -   -  2 4 mph 1015.5mb 62f 57f
5:50am 4ft 16s 7s 2
mph
1015mb 62f 57f
4:50am 4ft 17s 7s 7
mph
1014.6mb 62f 57f
3:50am 3.5ft 13s 6s 9 11 mph 1014.7mb 62f 58f
2:50am 4ft 14s 7s 9 11 mph 1014.6mb 63f 59f
1:50am 3.5ft 16s 6s 2
mph
1015.1mb 63f 59f
12:50am 3.5ft 14s 6s  -  mph 1015.4mb 63f 59f
Wed 05/27 11:50pm 3.5ft 17s 6s 2 4 mph 1015.6mb 63f 60f
10:50pm 3.5ft 15s 6s 2 4 mph 1015.7mb 63f 60f
9:50pm 3.5ft 16s 6s 7
mph
1015.5mb 64f 60f
8:50pm 4ft 14s  -  2
mph
1015mb 64f 60f
7:50pm 3.5ft 15s 7s 4 7 mph 1014.9mb 64f 60f
6:50pm 3.5ft 14s 7s 7
mph
1014.6mb 64f 61f
5:50pm 3.5ft 16s 7s 7 9 mph 1014.7mb 64f 61f
4:50pm 3.5ft 17s 7s 7 9 mph 1014.9mb 64f 60f
3:50pm 3.5ft 17s 7s 7 9 mph 1015.4mb 64f 60f
2:50pm 3.5ft 15s 7s 4 9 mph 1015.8mb 64f 60f
1:50pm 3.5ft 17s 7s 9
mph
1016.1mb 64f 60f
12:50pm 3.5ft 13s 6s 7 9 mph 1016.5mb 63f 59f
11:50am 3.5ft 15s 7s 7
mph
1016.6mb 63f 59f
10:50am 3.5ft 14s 7s 7 9 mph 1016.5mb 63f 59f
9:50am 3.5ft 14s 7s 9 11 mph 1016.3mb 62f 59f
8:50am 3.5ft 14s 7s 9 11 mph 1016.3mb 62f 59f
7:50am 3.5ft 15s 7s 9 11 mph 1016mb 62f 60f
6:50am 3.5ft 14s 7s 4 7 mph 1015.6mb 62f 60f
5:50am 3.5ft 16s 6s 4
mph
1015.3mb 63f 59f
4:50am 3.5ft 14s 6s 4 7 mph 1015.1mb 63f 59f
3:50am 3.5ft 14s 6s 4 7 mph 1015.1mb 63f 59f
2:50am 3.5ft 14s 6s 2
mph
1015.6mb 63f 59f
1:50am 3.5ft 14s 6s 2 4 mph 1015.8mb 63f 58f
12:50am 3.5ft 14s 6s 4 7 mph 1015.8mb 63f 59f
Tue 05/26 11:50pm 4ft 14s 6s 4 9 mph 1015.9mb 63f 60f
10:50pm 4ft 14s 6s 2 4 mph 1015.9mb 63f 60f
9:50pm 3.5ft 14s 6s 7 9 mph 1015.6mb 63f 59f
8:50pm 4ft 14s 5s 11 13 mph 1015.1mb 63f 59f
7:50pm  -   -   -  11 13 mph 1015mb 63f 60f
6:50pm 3.5ft 14s 6s 13 16 mph 1015.2mb 63f 60f
5:50pm 3.5ft 14s 6s 11 13 mph 1015.2mb 63f 60f
4:50pm 3.5ft 14s 7s 13
mph
1015.3mb 63f 60f
3:50pm 3.5ft 14s 7s 11
mph
1015.6mb 63f 59f
2:50pm 3ft 14s 7s 9 11 mph 1016.1mb 63f 59f
1:50pm 3.5ft 14s 8s 9
mph
1016.3mb 63f 59f
12:50pm 3.5ft 15s 7s 9 11 mph 1016.7mb 63f 58f
11:50am 3.5ft 15s 7s 7
mph
1016.8mb 63f 59f
10:50am 3ft 14s 6s 4 7 mph 1016.7mb 63f 59f
9:50am 3.5ft 15s 7s 4 7 mph 1016.4mb 63f 59f
8:50am 2.5ft 15s 6s 7 9 mph 1016.3mb 63f 59f
7:50am 3.5ft 15s 7s 7 9 mph 1016.1mb 63f 59f
6:50am 3.5ft 15s 6s 7 9 mph 1015.9mb 63f 59f
5:50am 4ft 15s 7s 7
mph
1015.7mb 63f 59f
4:50am 3.5ft 15s 6s 7 9 mph 1015.6mb 62f 58f
3:50am 4ft 15s 7s 9 11 mph 1015.3mb 62f 58f
2:50am 3.5ft 17s 5s 11 13 mph 1015.2mb 62f 59f
1:50am 3.5ft 16s 5s 11 13 mph 1015.4mb 62f 59f
12:50am 3.5ft 15s 6s 11 16 mph 1015.6mb 63f 59f
Mon 05/25 11:50pm  -   -   -  13
mph
1015.7mb 63f 59f
10:50pm 3.5ft 15s 7s 11 13 mph 1016mb 63f 60f
9:50pm 3.5ft 15s 7s 9
mph
1015.7mb 63f 60f
8:50pm 3ft 16s 6s 11 13 mph 1015.1mb 63f 60f
7:50pm 3ft 16s 7s 9 11 mph 1014.8mb 63f 60f